sensor_id;sensor_type;location;lat;lon;timestamp;temperature;humidity
5554;DHT22;2800;49.528;8.666;2023-01-29T00:00:47;0.10;99.90
5554;DHT22;2800;49.528;8.666;2023-01-29T00:03:13;0.20;99.90
5554;DHT22;2800;49.528;8.666;2023-01-29T00:05:39;0.10;99.90
5554;DHT22;2800;49.528;8.666;2023-01-29T00:08:05;0.20;99.90
5554;DHT22;2800;49.528;8.666;2023-01-29T00:10:30;0.20;99.90
5554;DHT22;2800;49.528;8.666;2023-01-29T00:12:56;0.20;99.90
5554;DHT22;2800;49.528;8.666;2023-01-29T00:15:22;0.10;99.90
5554;DHT22;2800;49.528;8.666;2023-01-29T00:17:47;0.20;99.90
5554;DHT22;2800;49.528;8.666;2023-01-29T00:20:13;0.20;99.90
5554;DHT22;2800;49.528;8.666;2023-01-29T00:22:38;0.10;99.90
5554;DHT22;2800;49.528;8.666;2023-01-29T00:25:04;0.10;99.90
5554;DHT22;2800;49.528;8.666;2023-01-29T00:27:30;0.00;99.90
5554;DHT22;2800;49.528;8.666;2023-01-29T00:29:55;0.00;99.90
5554;DHT22;2800;49.528;8.666;2023-01-29T00:32:34;0.00;99.90
5554;DHT22;2800;49.528;8.666;2023-01-29T00:35:00;0.00;99.90
5554;DHT22;2800;49.528;8.666;2023-01-29T00:37:25;0.10;99.90
5554;DHT22;2800;49.528;8.666;2023-01-29T00:39:51;0.10;99.90
5554;DHT22;2800;49.528;8.666;2023-01-29T00:42:16;0.10;99.90
5554;DHT22;2800;49.528;8.666;2023-01-29T00:45:00;0.10;99.90
5554;DHT22;2800;49.528;8.666;2023-01-29T00:47:26;0.00;99.90
5554;DHT22;2800;49.528;8.666;2023-01-29T00:49:58;0.00;99.90
5554;DHT22;2800;49.528;8.666;2023-01-29T00:52:25;0.00;99.90
5554;DHT22;2800;49.528;8.666;2023-01-29T00:54:52;0.00;99.90
5554;DHT22;2800;49.528;8.666;2023-01-29T00:57:18;-0.10;99.90
5554;DHT22;2800;49.528;8.666;2023-01-29T00:59:43;0.00;99.90
5554;DHT22;2800;49.528;8.666;2023-01-29T01:02:09;0.00;99.90
5554;DHT22;2800;49.528;8.666;2023-01-29T01:04:53;-0.10;99.90
5554;DHT22;2800;49.528;8.666;2023-01-29T01:07:19;0.10;99.90
5554;DHT22;2800;49.528;8.666;2023-01-29T01:09:44;0.00;99.90
5554;DHT22;2800;49.528;8.666;2023-01-29T01:12:29;0.00;99.90
5554;DHT22;2800;49.528;8.666;2023-01-29T01:14:54;0.00;99.90
5554;DHT22;2800;49.528;8.666;2023-01-29T01:17:20;0.00;99.90
5554;DHT22;2800;49.528;8.666;2023-01-29T01:19:46;0.00;99.90
5554;DHT22;2800;49.528;8.666;2023-01-29T01:22:11;0.10;99.90
5554;DHT22;2800;49.528;8.666;2023-01-29T01:24:37;0.10;99.90
5554;DHT22;2800;49.528;8.666;2023-01-29T01:27:03;0.10;99.90
5554;DHT22;2800;49.528;8.666;2023-01-29T01:29:28;0.10;99.90
5554;DHT22;2800;49.528;8.666;2023-01-29T01:31:54;0.10;99.90
5554;DHT22;2800;49.528;8.666;2023-01-29T01:34:19;0.10;99.90
5554;DHT22;2800;49.528;8.666;2023-01-29T01:36:46;0.10;99.90
5554;DHT22;2800;49.528;8.666;2023-01-29T01:39:12;0.10;99.90
5554;DHT22;2800;49.528;8.666;2023-01-29T01:41:37;0.10;99.90
5554;DHT22;2800;49.528;8.666;2023-01-29T01:44:03;0.10;99.90
5554;DHT22;2800;49.528;8.666;2023-01-29T01:46:32;0.10;99.90
5554;DHT22;2800;49.528;8.666;2023-01-29T01:49:02;0.10;99.90
5554;DHT22;2800;49.528;8.666;2023-01-29T01:51:31;0.10;99.90
5554;DHT22;2800;49.528;8.666;2023-01-29T01:54:09;0.10;99.90
5554;DHT22;2800;49.528;8.666;2023-01-29T01:56:42;0.10;99.90
5554;DHT22;2800;49.528;8.666;2023-01-29T01:59:12;0.10;99.90
5554;DHT22;2800;49.528;8.666;2023-01-29T02:01:42;0.10;99.90
5554;DHT22;2800;49.528;8.666;2023-01-29T02:04:11;0.10;99.90
5554;DHT22;2800;49.528;8.666;2023-01-29T02:06:58;0.10;99.90
5554;DHT22;2800;49.528;8.666;2023-01-29T02:09:52;0.00;99.90
5554;DHT22;2800;49.528;8.666;2023-01-29T02:12:19;0.00;99.90
5554;DHT22;2800;49.528;8.666;2023-01-29T02:14:45;-0.20;99.90
5554;DHT22;2800;49.528;8.666;2023-01-29T02:17:13;-0.10;99.90
5554;DHT22;2800;49.528;8.666;2023-01-29T02:28:05;-0.20;99.90
5554;DHT22;2800;49.528;8.666;2023-01-29T02:30:40;-0.30;99.90
5554;DHT22;2800;49.528;8.666;2023-01-29T02:36:20;-0.30;99.90
5554;DHT22;2800;49.528;8.666;2023-01-29T02:39:12;-0.40;99.90
5554;DHT22;2800;49.528;8.666;2023-01-29T02:44:32;-0.50;99.90
5554;DHT22;2800;49.528;8.666;2023-01-29T02:47:19;-0.60;99.90
5554;DHT22;2800;49.528;8.666;2023-01-29T02:52:25;-0.50;99.90
5554;DHT22;2800;49.528;8.666;2023-01-29T02:55:05;-0.60;99.90
5554;DHT22;2800;49.528;8.666;2023-01-29T02:57:38;-0.70;99.90
5554;DHT22;2800;49.528;8.666;2023-01-29T03:00:13;-0.70;99.90
5554;DHT22;2800;49.528;8.666;2023-01-29T03:03:07;-0.70;99.90
5554;DHT22;2800;49.528;8.666;2023-01-29T03:05:39;-0.70;99.90
5554;DHT22;2800;49.528;8.666;2023-01-29T03:08:11;-0.80;99.90
5554;DHT22;2800;49.528;8.666;2023-01-29T03:10:44;-0.80;99.90
5554;DHT22;2800;49.528;8.666;2023-01-29T03:13:17;-0.80;99.90
5554;DHT22;2800;49.528;8.666;2023-01-29T03:15:48;-0.80;99.90
5554;DHT22;2800;49.528;8.666;2023-01-29T03:18:22;-0.90;99.90
5554;DHT22;2800;49.528;8.666;2023-01-29T03:20:55;-0.90;99.90
5554;DHT22;2800;49.528;8.666;2023-01-29T03:23:25;-0.80;99.90
5554;DHT22;2800;49.528;8.666;2023-01-29T03:26:03;-0.80;99.90
5554;DHT22;2800;49.528;8.666;2023-01-29T03:28:49;-0.90;99.90
5554;DHT22;2800;49.528;8.666;2023-01-29T03:31:34;-0.90;99.90
5554;DHT22;2800;49.528;8.666;2023-01-29T03:34:21;-0.90;99.90
5554;DHT22;2800;49.528;8.666;2023-01-29T03:37:01;-1.00;99.90
5554;DHT22;2800;49.528;8.666;2023-01-29T03:39:28;-1.00;99.90
5554;DHT22;2800;49.528;8.666;2023-01-29T03:42:01;-0.90;99.90
5554;DHT22;2800;49.528;8.666;2023-01-29T03:47:41;-0.90;99.90
5554;DHT22;2800;49.528;8.666;2023-01-29T03:53:05;-0.90;99.90
5554;DHT22;2800;49.528;8.666;2023-01-29T04:00:45;-1.00;99.90
5554;DHT22;2800;49.528;8.666;2023-01-29T04:03:16;-1.00;99.90
5554;DHT22;2800;49.528;8.666;2023-01-29T04:08:20;-1.00;99.90
5554;DHT22;2800;49.528;8.666;2023-01-29T04:10:50;-0.90;99.90
5554;DHT22;2800;49.528;8.666;2023-01-29T04:13:17;-0.90;99.90
5554;DHT22;2800;49.528;8.666;2023-01-29T04:15:48;-0.90;99.90
5554;DHT22;2800;49.528;8.666;2023-01-29T04:18:15;-0.80;99.90
5554;DHT22;2800;49.528;8.666;2023-01-29T04:20:41;-0.90;99.90
5554;DHT22;2800;49.528;8.666;2023-01-29T04:23:23;-0.90;99.90
5554;DHT22;2800;49.528;8.666;2023-01-29T04:26:18;-0.90;99.90
5554;DHT22;2800;49.528;8.666;2023-01-29T04:29:06;-0.90;99.90
5554;DHT22;2800;49.528;8.666;2023-01-29T04:31:39;-0.90;99.90
5554;DHT22;2800;49.528;8.666;2023-01-29T04:34:22;-1.00;99.90
5554;DHT22;2800;49.528;8.666;2023-01-29T04:37:10;-1.10;99.90
5554;DHT22;2800;49.528;8.666;2023-01-29T04:39:58;-1.10;99.90
5554;DHT22;2800;49.528;8.666;2023-01-29T04:42:33;-1.10;99.90
5554;DHT22;2800;49.528;8.666;2023-01-29T04:53:49;-1.10;99.90
5554;DHT22;2800;49.528;8.666;2023-01-29T04:56:33;-1.10;99.90
5554;DHT22;2800;49.528;8.666;2023-01-29T04:59:06;-1.20;99.90
5554;DHT22;2800;49.528;8.666;2023-01-29T05:01:34;-1.20;99.90
5554;DHT22;2800;49.528;8.666;2023-01-29T05:04:06;-1.20;99.90
5554;DHT22;2800;49.528;8.666;2023-01-29T05:06:34;-1.30;99.90
5554;DHT22;2800;49.528;8.666;2023-01-29T05:09:00;-1.30;99.90
5554;DHT22;2800;49.528;8.666;2023-01-29T05:11:26;-1.30;99.90
5554;DHT22;2800;49.528;8.666;2023-01-29T05:13:54;-1.30;99.90
5554;DHT22;2800;49.528;8.666;2023-01-29T05:16:30;-1.30;99.90
5554;DHT22;2800;49.528;8.666;2023-01-29T05:19:08;-1.40;99.90
5554;DHT22;2800;49.528;8.666;2023-01-29T05:21:33;-1.40;99.90
5554;DHT22;2800;49.528;8.666;2023-01-29T05:24:09;-1.40;99.90
5554;DHT22;2800;49.528;8.666;2023-01-29T05:26:35;-1.40;99.90
5554;DHT22;2800;49.528;8.666;2023-01-29T05:29:19;-1.30;99.90
5554;DHT22;2800;49.528;8.666;2023-01-29T05:31:45;-1.40;99.90
5554;DHT22;2800;49.528;8.666;2023-01-29T05:34:10;-1.40;99.90
5554;DHT22;2800;49.528;8.666;2023-01-29T05:36:36;-1.40;99.90
5554;DHT22;2800;49.528;8.666;2023-01-29T05:39:01;-1.30;99.90
5554;DHT22;2800;49.528;8.666;2023-01-29T05:41:27;-1.30;99.90
5554;DHT22;2800;49.528;8.666;2023-01-29T05:43:53;-1.30;99.90
5554;DHT22;2800;49.528;8.666;2023-01-29T05:46:18;-1.30;99.90
5554;DHT22;2800;49.528;8.666;2023-01-29T05:48:44;-1.30;99.90
5554;DHT22;2800;49.528;8.666;2023-01-29T05:51:09;-1.30;99.90
5554;DHT22;2800;49.528;8.666;2023-01-29T05:53:35;-1.20;99.90
5554;DHT22;2800;49.528;8.666;2023-01-29T05:56:01;-1.20;99.90
5554;DHT22;2800;49.528;8.666;2023-01-29T05:58:29;-1.30;99.90
5554;DHT22;2800;49.528;8.666;2023-01-29T06:00:55;-1.30;99.90
5554;DHT22;2800;49.528;8.666;2023-01-29T06:03:20;-1.70;99.90
5554;DHT22;2800;49.528;8.666;2023-01-29T06:05:46;-1.30;99.90
5554;DHT22;2800;49.528;8.666;2023-01-29T06:08:11;-1.30;99.90
5554;DHT22;2800;49.528;8.666;2023-01-29T06:10:38;-1.30;99.90
5554;DHT22;2800;49.528;8.666;2023-01-29T06:13:04;-1.20;99.90
5554;DHT22;2800;49.528;8.666;2023-01-29T06:15:29;-1.20;99.90
5554;DHT22;2800;49.528;8.666;2023-01-29T06:17:56;-1.20;99.90
5554;DHT22;2800;49.528;8.666;2023-01-29T06:20:22;-1.10;99.90
5554;DHT22;2800;49.528;8.666;2023-01-29T06:22:47;-1.10;99.90
5554;DHT22;2800;49.528;8.666;2023-01-29T06:25:13;-1.00;99.90
5554;DHT22;2800;49.528;8.666;2023-01-29T06:27:38;-1.00;99.90
5554;DHT22;2800;49.528;8.666;2023-01-29T06:30:05;-1.00;99.90
5554;DHT22;2800;49.528;8.666;2023-01-29T06:32:31;-1.00;99.90
5554;DHT22;2800;49.528;8.666;2023-01-29T06:34:56;-1.00;99.90
5554;DHT22;2800;49.528;8.666;2023-01-29T06:37:22;-1.00;99.90
5554;DHT22;2800;49.528;8.666;2023-01-29T06:39:47;-1.10;99.90
5554;DHT22;2800;49.528;8.666;2023-01-29T06:42:13;-1.00;99.90
5554;DHT22;2800;49.528;8.666;2023-01-29T06:44:38;-1.10;99.90
5554;DHT22;2800;49.528;8.666;2023-01-29T06:47:04;-1.10;99.90
5554;DHT22;2800;49.528;8.666;2023-01-29T06:49:30;-1.20;99.90
5554;DHT22;2800;49.528;8.666;2023-01-29T06:51:55;-1.30;99.90
5554;DHT22;2800;49.528;8.666;2023-01-29T06:54:21;-1.30;99.90
5554;DHT22;2800;49.528;8.666;2023-01-29T06:56:46;-1.20;99.90
5554;DHT22;2800;49.528;8.666;2023-01-29T06:59:12;-1.30;99.90
5554;DHT22;2800;49.528;8.666;2023-01-29T07:01:38;-1.30;99.90
5554;DHT22;2800;49.528;8.666;2023-01-29T07:04:09;-1.20;99.90
5554;DHT22;2800;49.528;8.666;2023-01-29T07:06:34;-1.20;99.90
5554;DHT22;2800;49.528;8.666;2023-01-29T07:09:01;-1.00;99.90
5554;DHT22;2800;49.528;8.666;2023-01-29T07:11:26;-1.10;99.90
5554;DHT22;2800;49.528;8.666;2023-01-29T07:13:52;-1.00;99.90
5554;DHT22;2800;49.528;8.666;2023-01-29T07:16:17;-1.00;99.90
5554;DHT22;2800;49.528;8.666;2023-01-29T07:18:43;-1.00;99.90
5554;DHT22;2800;49.528;8.666;2023-01-29T07:21:09;-1.00;99.90
5554;DHT22;2800;49.528;8.666;2023-01-29T07:23:34;-1.00;99.90
5554;DHT22;2800;49.528;8.666;2023-01-29T07:26:02;-1.00;99.90
5554;DHT22;2800;49.528;8.666;2023-01-29T07:28:28;-1.00;99.90
5554;DHT22;2800;49.528;8.666;2023-01-29T07:30:57;-1.00;99.90
5554;DHT22;2800;49.528;8.666;2023-01-29T07:33:23;-0.90;99.90
5554;DHT22;2800;49.528;8.666;2023-01-29T07:35:48;-1.00;99.90
5554;DHT22;2800;49.528;8.666;2023-01-29T07:38:14;-1.00;99.90
5554;DHT22;2800;49.528;8.666;2023-01-29T07:40:39;-1.00;99.90
5554;DHT22;2800;49.528;8.666;2023-01-29T07:43:06;-1.10;99.90
5554;DHT22;2800;49.528;8.666;2023-01-29T07:45:33;-1.00;99.90
5554;DHT22;2800;49.528;8.666;2023-01-29T07:47:59;-1.00;99.90
5554;DHT22;2800;49.528;8.666;2023-01-29T07:50:25;-1.00;99.90
5554;DHT22;2800;49.528;8.666;2023-01-29T07:52:53;-1.00;99.90
5554;DHT22;2800;49.528;8.666;2023-01-29T07:55:19;-0.90;99.90
5554;DHT22;2800;49.528;8.666;2023-01-29T07:57:45;-0.90;99.90
5554;DHT22;2800;49.528;8.666;2023-01-29T08:00:11;-0.90;99.90
5554;DHT22;2800;49.528;8.666;2023-01-29T08:02:38;-0.90;99.90
5554;DHT22;2800;49.528;8.666;2023-01-29T08:05:03;-0.80;99.90
5554;DHT22;2800;49.528;8.666;2023-01-29T08:07:29;-0.80;99.90
5554;DHT22;2800;49.528;8.666;2023-01-29T08:09:54;-0.70;99.90
5554;DHT22;2800;49.528;8.666;2023-01-29T08:12:20;-0.70;99.90
5554;DHT22;2800;49.528;8.666;2023-01-29T08:14:45;-0.70;99.90
5554;DHT22;2800;49.528;8.666;2023-01-29T08:17:12;-0.70;99.90
5554;DHT22;2800;49.528;8.666;2023-01-29T08:19:38;-0.50;99.90
5554;DHT22;2800;49.528;8.666;2023-01-29T08:22:04;-0.50;99.90
5554;DHT22;2800;49.528;8.666;2023-01-29T08:24:29;-0.50;99.90
5554;DHT22;2800;49.528;8.666;2023-01-29T08:26:55;-0.30;99.90
5554;DHT22;2800;49.528;8.666;2023-01-29T08:29:21;0.10;99.90
5554;DHT22;2800;49.528;8.666;2023-01-29T08:31:46;0.60;99.90
5554;DHT22;2800;49.528;8.666;2023-01-29T08:34:12;1.00;99.90
5554;DHT22;2800;49.528;8.666;2023-01-29T08:36:37;1.30;99.90
5554;DHT22;2800;49.528;8.666;2023-01-29T08:39:03;1.40;99.90
5554;DHT22;2800;49.528;8.666;2023-01-29T08:41:29;1.10;99.90
5554;DHT22;2800;49.528;8.666;2023-01-29T08:43:54;1.00;99.90
5554;DHT22;2800;49.528;8.666;2023-01-29T08:46:21;1.20;99.90
5554;DHT22;2800;49.528;8.666;2023-01-29T08:48:47;1.50;99.90
5554;DHT22;2800;49.528;8.666;2023-01-29T08:51:12;1.70;99.90
5554;DHT22;2800;49.528;8.666;2023-01-29T08:53:38;1.60;99.90
5554;DHT22;2800;49.528;8.666;2023-01-29T08:56:03;1.50;99.10
5554;DHT22;2800;49.528;8.666;2023-01-29T08:58:29;1.50;99.30
5554;DHT22;2800;49.528;8.666;2023-01-29T09:00:54;1.80;98.70
5554;DHT22;2800;49.528;8.666;2023-01-29T09:03:20;1.90;97.60
5554;DHT22;2800;49.528;8.666;2023-01-29T09:05:45;2.10;97.20
5554;DHT22;2800;49.528;8.666;2023-01-29T09:08:11;2.20;96.90
5554;DHT22;2800;49.528;8.666;2023-01-29T09:10:37;1.90;96.20
5554;DHT22;2800;49.528;8.666;2023-01-29T09:13:03;2.30;96.30
5554;DHT22;2800;49.528;8.666;2023-01-29T09:15:28;2.20;94.70
5554;DHT22;2800;49.528;8.666;2023-01-29T09:17:54;2.30;95.90
5554;DHT22;2800;49.528;8.666;2023-01-29T09:20:19;2.20;96.00
5554;DHT22;2800;49.528;8.666;2023-01-29T09:22:45;1.40;97.80
5554;DHT22;2800;49.528;8.666;2023-01-29T09:25:11;1.80;97.60
5554;DHT22;2800;49.528;8.666;2023-01-29T09:27:37;1.60;97.80
5554;DHT22;2800;49.528;8.666;2023-01-29T09:30:06;1.20;97.30
5554;DHT22;2800;49.528;8.666;2023-01-29T09:32:33;1.40;97.30
5554;DHT22;2800;49.528;8.666;2023-01-29T09:34:58;1.40;97.20
5554;DHT22;2800;49.528;8.666;2023-01-29T09:37:24;2.00;97.50
5554;DHT22;2800;49.528;8.666;2023-01-29T09:39:49;1.80;98.60
5554;DHT22;2800;49.528;8.666;2023-01-29T09:42:20;2.00;96.00
5554;DHT22;2800;49.528;8.666;2023-01-29T09:45:14;1.80;95.20
5554;DHT22;2800;49.528;8.666;2023-01-29T09:47:40;1.70;96.40
5554;DHT22;2800;49.528;8.666;2023-01-29T09:52:58;1.20;98.30
5554;DHT22;2800;49.528;8.666;2023-01-29T09:55:35;1.10;99.90
5554;DHT22;2800;49.528;8.666;2023-01-29T09:58:24;1.10;99.90
5554;DHT22;2800;49.528;8.666;2023-01-29T10:03:54;1.30;99.90
5554;DHT22;2800;49.528;8.666;2023-01-29T10:15:16;1.30;99.10
5554;DHT22;2800;49.528;8.666;2023-01-29T10:23:24;1.50;99.20
5554;DHT22;2800;49.528;8.666;2023-01-29T10:25:52;1.70;99.60
5554;DHT22;2800;49.528;8.666;2023-01-29T10:28:33;1.80;98.70
5554;DHT22;2800;49.528;8.666;2023-01-29T10:31:09;1.60;97.80
5554;DHT22;2800;49.528;8.666;2023-01-29T10:33:46;1.40;97.30
5554;DHT22;2800;49.528;8.666;2023-01-29T10:36:20;1.40;97.60
5554;DHT22;2800;49.528;8.666;2023-01-29T10:38:49;1.50;97.70
5554;DHT22;2800;49.528;8.666;2023-01-29T10:44:29;1.70;97.70
5554;DHT22;2800;49.528;8.666;2023-01-29T10:50:14;1.70;97.60
5554;DHT22;2800;49.528;8.666;2023-01-29T10:56:16;1.80;96.70
5554;DHT22;2800;49.528;8.666;2023-01-29T10:58:49;1.80;96.50
5554;DHT22;2800;49.528;8.666;2023-01-29T11:01:15;2.00;96.10
5554;DHT22;2800;49.528;8.666;2023-01-29T11:03:41;2.10;96.10
5554;DHT22;2800;49.528;8.666;2023-01-29T11:09:19;2.80;94.50
5554;DHT22;2800;49.528;8.666;2023-01-29T11:11:49;2.70;91.00
5554;DHT22;2800;49.528;8.666;2023-01-29T11:17:19;3.30;91.10
5554;DHT22;2800;49.528;8.666;2023-01-29T11:19:46;3.80;87.10
5554;DHT22;2800;49.528;8.666;2023-01-29T11:22:15;4.10;82.00
5554;DHT22;2800;49.528;8.666;2023-01-29T11:24:41;4.30;80.10
5554;DHT22;2800;49.528;8.666;2023-01-29T11:27:33;4.40;77.00
5554;DHT22;2800;49.528;8.666;2023-01-29T11:30:00;4.40;75.60
5554;DHT22;2800;49.528;8.666;2023-01-29T11:32:28;4.50;73.10
5554;DHT22;2800;49.528;8.666;2023-01-29T11:37:42;4.80;69.00
5554;DHT22;2800;49.528;8.666;2023-01-29T11:42:44;3.50;70.90
5554;DHT22;2800;49.528;8.666;2023-01-29T11:47:52;3.70;68.10
5554;DHT22;2800;49.528;8.666;2023-01-29T11:50:25;4.10;71.80
5554;DHT22;2800;49.528;8.666;2023-01-29T11:52:50;3.70;69.30
5554;DHT22;2800;49.528;8.666;2023-01-29T11:55:29;4.00;71.00
5554;DHT22;2800;49.528;8.666;2023-01-29T11:58:02;4.10;71.20
5554;DHT22;2800;49.528;8.666;2023-01-29T12:00:31;4.00;68.40
5554;DHT22;2800;49.528;8.666;2023-01-29T12:03:10;3.80;69.90
5554;DHT22;2800;49.528;8.666;2023-01-29T12:05:38;3.50;68.70
5554;DHT22;2800;49.528;8.666;2023-01-29T12:08:14;4.00;71.70
5554;DHT22;2800;49.528;8.666;2023-01-29T12:10:41;4.90;70.60
5554;DHT22;2800;49.528;8.666;2023-01-29T12:15:44;3.80;67.60
5554;DHT22;2800;49.528;8.666;2023-01-29T12:18:24;3.90;68.50
5554;DHT22;2800;49.528;8.666;2023-01-29T12:20:58;4.50;71.40
5554;DHT22;2800;49.528;8.666;2023-01-29T12:23:45;4.90;67.80
5554;DHT22;2800;49.528;8.666;2023-01-29T12:26:35;4.80;63.20
5554;DHT22;2800;49.528;8.666;2023-01-29T12:29:26;5.70;63.30
5554;DHT22;2800;49.528;8.666;2023-01-29T12:35:22;4.90;60.80
5554;DHT22;2800;49.528;8.666;2023-01-29T12:38:08;4.50;61.30
5554;DHT22;2800;49.528;8.666;2023-01-29T12:40:59;4.80;61.70
5554;DHT22;2800;49.528;8.666;2023-01-29T12:43:39;5.00;58.60
5554;DHT22;2800;49.528;8.666;2023-01-29T12:46:11;5.20;59.40
5554;DHT22;2800;49.528;8.666;2023-01-29T12:48:41;4.70;58.00
5554;DHT22;2800;49.528;8.666;2023-01-29T12:51:33;4.70;63.00
5554;DHT22;2800;49.528;8.666;2023-01-29T12:54:08;5.10;61.30
5554;DHT22;2800;49.528;8.666;2023-01-29T12:56:48;5.00;59.60
5554;DHT22;2800;49.528;8.666;2023-01-29T12:59:30;5.30;60.10
5554;DHT22;2800;49.528;8.666;2023-01-29T13:02:13;6.10;59.80
5554;DHT22;2800;49.528;8.666;2023-01-29T13:04:44;6.30;54.40
5554;DHT22;2800;49.528;8.666;2023-01-29T13:07:32;5.80;54.30
5554;DHT22;2800;49.528;8.666;2023-01-29T13:10:11;5.30;53.40
5554;DHT22;2800;49.528;8.666;2023-01-29T13:12:40;5.10;58.90
5554;DHT22;2800;49.528;8.666;2023-01-29T13:15:22;4.90;55.40
5554;DHT22;2800;49.528;8.666;2023-01-29T13:20:38;3.60;64.10
5554;DHT22;2800;49.528;8.666;2023-01-29T13:23:17;3.70;62.70
5554;DHT22;2800;49.528;8.666;2023-01-29T13:25:44;4.10;59.10
5554;DHT22;2800;49.528;8.666;2023-01-29T13:28:25;4.50;60.20
5554;DHT22;2800;49.528;8.666;2023-01-29T13:31:13;4.70;59.10
5554;DHT22;2800;49.528;8.666;2023-01-29T13:33:43;5.30;58.70
5554;DHT22;2800;49.528;8.666;2023-01-29T13:36:19;5.40;56.90
5554;DHT22;2800;49.528;8.666;2023-01-29T13:39:03;4.90;56.20
5554;DHT22;2800;49.528;8.666;2023-01-29T13:41:38;4.50;58.40
5554;DHT22;2800;49.528;8.666;2023-01-29T13:44:16;4.50;58.70
5554;DHT22;2800;49.528;8.666;2023-01-29T13:46:57;5.60;59.10
5554;DHT22;2800;49.528;8.666;2023-01-29T13:49:51;5.80;56.40
5554;DHT22;2800;49.528;8.666;2023-01-29T13:52:30;5.80;55.70
5554;DHT22;2800;49.528;8.666;2023-01-29T13:55:06;5.00;54.40
5554;DHT22;2800;49.528;8.666;2023-01-29T13:57:46;5.10;54.90
5554;DHT22;2800;49.528;8.666;2023-01-29T14:07:56;4.20;60.40
5554;DHT22;2800;49.528;8.666;2023-01-29T14:10:25;4.10;59.70
5554;DHT22;2800;49.528;8.666;2023-01-29T14:15:44;4.00;60.10
5554;DHT22;2800;49.528;8.666;2023-01-29T14:20:52;4.20;62.20
5554;DHT22;2800;49.528;8.666;2023-01-29T14:26:25;3.90;64.00
5554;DHT22;2800;49.528;8.666;2023-01-29T14:29:15;4.00;63.20
5554;DHT22;2800;49.528;8.666;2023-01-29T14:32:12;4.40;63.00
5554;DHT22;2800;49.528;8.666;2023-01-29T14:34:44;4.70;62.00
5554;DHT22;2800;49.528;8.666;2023-01-29T14:39:43;5.40;60.00
5554;DHT22;2800;49.528;8.666;2023-01-29T14:43:00;5.20;56.30
5554;DHT22;2800;49.528;8.666;2023-01-29T14:45:26;4.60;57.60
5554;DHT22;2800;49.528;8.666;2023-01-29T14:47:54;4.40;56.20
5554;DHT22;2800;49.528;8.666;2023-01-29T14:56:03;3.80;61.00
5554;DHT22;2800;49.528;8.666;2023-01-29T14:58:50;3.90;60.00
5554;DHT22;2800;49.528;8.666;2023-01-29T15:04:03;3.20;62.00
5554;DHT22;2800;49.528;8.666;2023-01-29T15:06:36;3.50;63.90
5554;DHT22;2800;49.528;8.666;2023-01-29T15:09:17;4.00;64.00
5554;DHT22;2800;49.528;8.666;2023-01-29T15:14:32;3.00;60.30
5554;DHT22;2800;49.528;8.666;2023-01-29T15:17:38;3.00;63.10
5554;DHT22;2800;49.528;8.666;2023-01-29T15:20:29;3.50;65.50
5554;DHT22;2800;49.528;8.666;2023-01-29T15:22:54;3.50;65.10
5554;DHT22;2800;49.528;8.666;2023-01-29T15:25:20;4.10;63.90
5554;DHT22;2800;49.528;8.666;2023-01-29T15:27:46;3.20;63.80
5554;DHT22;2800;49.528;8.666;2023-01-29T15:30:19;3.80;65.00
5554;DHT22;2800;49.528;8.666;2023-01-29T15:32:45;2.90;66.30
5554;DHT22;2800;49.528;8.666;2023-01-29T15:35:29;3.10;67.60
5554;DHT22;2800;49.528;8.666;2023-01-29T15:38:02;3.40;66.50
5554;DHT22;2800;49.528;8.666;2023-01-29T15:40:27;2.80;68.80
5554;DHT22;2800;49.528;8.666;2023-01-29T15:42:53;2.10;69.70
5554;DHT22;2800;49.528;8.666;2023-01-29T15:45:29;1.70;78.20
5554;DHT22;2800;49.528;8.666;2023-01-29T15:48:11;1.70;86.10
5554;DHT22;2800;49.528;8.666;2023-01-29T15:50:40;1.70;90.00
5554;DHT22;2800;49.528;8.666;2023-01-29T15:53:12;1.60;91.40
5554;DHT22;2800;49.528;8.666;2023-01-29T15:55:38;1.40;94.00
5554;DHT22;2800;49.528;8.666;2023-01-29T15:58:05;1.50;94.70
5554;DHT22;2800;49.528;8.666;2023-01-29T16:00:31;1.30;96.40
5554;DHT22;2800;49.528;8.666;2023-01-29T16:02:57;1.20;97.80
5554;DHT22;2800;49.528;8.666;2023-01-29T16:05:29;1.10;99.40
5554;DHT22;2800;49.528;8.666;2023-01-29T16:07:58;1.10;99.90
5554;DHT22;2800;49.528;8.666;2023-01-29T16:10:29;1.00;99.90
5554;DHT22;2800;49.528;8.666;2023-01-29T16:12:55;1.00;99.90
5554;DHT22;2800;49.528;8.666;2023-01-29T16:15:34;0.90;99.90
5554;DHT22;2800;49.528;8.666;2023-01-29T16:18:02;0.80;99.90
5554;DHT22;2800;49.528;8.666;2023-01-29T16:22:59;0.70;99.90
5554;DHT22;2800;49.528;8.666;2023-01-29T16:25:27;0.60;99.90
5554;DHT22;2800;49.528;8.666;2023-01-29T16:27:53;0.60;99.90
5554;DHT22;2800;49.528;8.666;2023-01-29T16:30:24;0.70;99.90
5554;DHT22;2800;49.528;8.666;2023-01-29T16:32:50;0.50;99.90
5554;DHT22;2800;49.528;8.666;2023-01-29T16:35:16;0.40;99.90
5554;DHT22;2800;49.528;8.666;2023-01-29T16:37:46;0.30;99.90
5554;DHT22;2800;49.528;8.666;2023-01-29T16:40:20;0.30;99.90
5554;DHT22;2800;49.528;8.666;2023-01-29T16:43:35;0.30;99.90
5554;DHT22;2800;49.528;8.666;2023-01-29T16:45:42;0.30;99.90
5554;DHT22;2800;49.528;8.666;2023-01-29T16:48:25;0.30;99.90
5554;DHT22;2800;49.528;8.666;2023-01-29T16:51:05;0.30;99.90
5554;DHT22;2800;49.528;8.666;2023-01-29T16:53:31;0.30;99.90
5554;DHT22;2800;49.528;8.666;2023-01-29T16:56:02;0.30;99.90
5554;DHT22;2800;49.528;8.666;2023-01-29T16:58:29;0.30;99.90
5554;DHT22;2800;49.528;8.666;2023-01-29T17:01:11;0.30;99.90
5554;DHT22;2800;49.528;8.666;2023-01-29T17:03:37;0.20;99.90
5554;DHT22;2800;49.528;8.666;2023-01-29T17:06:10;0.20;99.90
5554;DHT22;2800;49.528;8.666;2023-01-29T17:08:37;0.20;99.90
5554;DHT22;2800;49.528;8.666;2023-01-29T17:11:05;0.20;99.90
5554;DHT22;2800;49.528;8.666;2023-01-29T17:13:38;0.20;99.90
5554;DHT22;2800;49.528;8.666;2023-01-29T17:16:36;0.20;99.90
5554;DHT22;2800;49.528;8.666;2023-01-29T17:19:17;0.20;99.90
5554;DHT22;2800;49.528;8.666;2023-01-29T17:21:44;0.20;99.90
5554;DHT22;2800;49.528;8.666;2023-01-29T17:24:10;0.20;99.90
5554;DHT22;2800;49.528;8.666;2023-01-29T17:26:35;0.10;99.90
5554;DHT22;2800;49.528;8.666;2023-01-29T17:29:01;0.10;99.90
5554;DHT22;2800;49.528;8.666;2023-01-29T17:31:26;0.10;99.90
5554;DHT22;2800;49.528;8.666;2023-01-29T17:33:52;0.10;99.90
5554;DHT22;2800;49.528;8.666;2023-01-29T17:36:17;0.10;99.90
5554;DHT22;2800;49.528;8.666;2023-01-29T17:38:45;0.10;99.90
5554;DHT22;2800;49.528;8.666;2023-01-29T17:41:26;0.10;99.90
5554;DHT22;2800;49.528;8.666;2023-01-29T17:43:52;0.10;99.90
5554;DHT22;2800;49.528;8.666;2023-01-29T17:46:19;0.10;99.90
5554;DHT22;2800;49.528;8.666;2023-01-29T17:48:45;0.20;99.90
5554;DHT22;2800;49.528;8.666;2023-01-29T17:51:13;0.30;99.90
5554;DHT22;2800;49.528;8.666;2023-01-29T17:53:39;0.30;99.90
5554;DHT22;2800;49.528;8.666;2023-01-29T17:56:16;0.20;99.90
5554;DHT22;2800;49.528;8.666;2023-01-29T17:58:42;0.30;99.90
5554;DHT22;2800;49.528;8.666;2023-01-29T18:01:08;0.30;99.90
5554;DHT22;2800;49.528;8.666;2023-01-29T18:03:33;0.30;99.90
5554;DHT22;2800;49.528;8.666;2023-01-29T18:05:59;0.10;99.90
5554;DHT22;2800;49.528;8.666;2023-01-29T18:08:29;0.20;99.90
5554;DHT22;2800;49.528;8.666;2023-01-29T18:10:56;0.10;99.90
5554;DHT22;2800;49.528;8.666;2023-01-29T18:13:22;0.20;99.90
5554;DHT22;2800;49.528;8.666;2023-01-29T18:15:49;0.30;99.90
5554;DHT22;2800;49.528;8.666;2023-01-29T18:18:17;0.30;99.90
5554;DHT22;2800;49.528;8.666;2023-01-29T18:20:43;0.30;99.90
5554;DHT22;2800;49.528;8.666;2023-01-29T18:23:09;0.40;99.90
5554;DHT22;2800;49.528;8.666;2023-01-29T18:25:35;0.40;99.90
5554;DHT22;2800;49.528;8.666;2023-01-29T18:28:02;0.40;99.90
5554;DHT22;2800;49.528;8.666;2023-01-29T18:30:28;0.40;99.90
5554;DHT22;2800;49.528;8.666;2023-01-29T18:32:53;0.40;99.90
5554;DHT22;2800;49.528;8.666;2023-01-29T18:35:19;0.40;99.90
5554;DHT22;2800;49.528;8.666;2023-01-29T18:37:45;0.40;99.90
5554;DHT22;2800;49.528;8.666;2023-01-29T18:40:11;0.40;99.90